createdAt,value
2023-01-11T00:02:28.439Z,15
2023-01-11T00:04:28.602Z,16
2023-01-11T00:06:28.623Z,15
2023-01-11T00:08:28.677Z,14
2023-01-11T00:10:28.805Z,13
2023-01-11T00:12:28.911Z,12
2023-01-11T00:14:29.004Z,14
2023-01-11T00:16:29.152Z,13
2023-01-11T00:18:29.259Z,13
2023-01-11T00:20:29.347Z,13
2023-01-11T00:24:29.577Z,15
2023-01-11T00:26:29.707Z,15
2023-01-11T00:28:29.816Z,17
2023-01-11T00:30:29.909Z,15
2023-01-11T00:32:30.043Z,17
2023-01-11T00:36:30.244Z,17
2023-01-11T00:38:30.357Z,18
2023-01-11T00:40:30.503Z,18
2023-01-11T00:42:30.614Z,22
2023-01-11T00:44:30.739Z,23
2023-01-11T00:46:30.891Z,24
2023-01-11T00:48:30.947Z,23
2023-01-11T00:50:31.067Z,22
2023-01-11T00:52:31.285Z,20
2023-01-11T00:54:31.279Z,18
2023-01-11T00:58:31.506Z,18
2023-01-11T01:00:31.667Z,16
2023-01-11T01:02:31.802Z,15
2023-01-11T01:04:31.865Z,15
2023-01-11T01:06:32.003Z,15
2023-01-11T01:08:32.025Z,15
2023-01-11T01:10:32.195Z,14
2023-01-11T01:12:32.254Z,15
2023-01-11T01:14:32.344Z,16
2023-01-11T01:16:32.498Z,16
2023-01-11T01:18:32.582Z,16
2023-01-11T01:20:32.684Z,16
2023-01-11T01:22:32.807Z,16
2023-01-11T01:24:32.904Z,16
2023-01-11T01:26:33.038Z,17
2023-01-11T01:28:33.152Z,18
2023-01-11T01:30:33.238Z,18
2023-01-11T01:32:33.401Z,20
2023-01-11T01:34:33.471Z,23
2023-01-11T01:36:33.590Z,23
2023-01-11T01:38:33.693Z,24
2023-01-11T01:40:33.807Z,25
2023-01-11T01:42:33.903Z,23
2023-01-11T01:44:34.001Z,23
2023-01-11T01:46:34.297Z,23
2023-01-11T01:48:34.249Z,22
2023-01-11T01:50:34.324Z,22
2023-01-11T01:52:34.475Z,23
2023-01-11T01:54:34.555Z,22
2023-01-11T01:56:34.667Z,22
2023-01-11T01:58:34.793Z,20
2023-01-11T02:00:34.893Z,19
2023-01-11T02:02:35.077Z,18
2023-01-11T02:04:35.118Z,18
2023-01-11T02:06:35.211Z,17
2023-01-11T02:08:35.321Z,17
2023-01-11T02:10:35.418Z,16
2023-01-11T02:12:35.525Z,16
2023-01-11T02:14:35.627Z,16
2023-01-11T02:16:35.751Z,15
2023-01-11T02:18:35.877Z,15
2023-01-11T02:20:35.961Z,15
2023-01-11T02:22:36.140Z,14
2023-01-11T02:24:36.227Z,14
2023-01-11T02:26:36.255Z,15
2023-01-11T02:28:36.364Z,14
2023-01-11T02:30:36.408Z,15
2023-01-11T02:32:36.533Z,15
2023-01-11T02:34:36.636Z,14
2023-01-11T02:36:36.734Z,15
2023-01-11T02:38:36.845Z,14
2023-01-11T02:40:36.925Z,14
2023-01-11T02:42:37.026Z,14
2023-01-11T02:44:37.133Z,15
2023-01-11T02:46:37.235Z,14
2023-01-11T02:48:37.312Z,13
2023-01-11T02:50:37.425Z,12
2023-01-11T02:52:37.549Z,13
2023-01-11T02:56:37.725Z,12
2023-01-11T02:58:37.844Z,11
2023-01-11T03:00:37.930Z,12
2023-01-11T03:02:38.107Z,12
2023-01-11T03:04:38.127Z,10
2023-01-11T03:06:38.384Z,11
2023-01-11T03:10:38.456Z,10
2023-01-11T03:16:38.753Z,9
2023-01-11T03:20:38.980Z,10
2023-01-11T03:22:39.061Z,10
2023-01-11T03:24:39.203Z,10
2023-01-11T03:26:39.251Z,9
2023-01-11T03:28:39.355Z,11
2023-01-11T03:30:39.464Z,12
2023-01-11T03:32:39.563Z,11
2023-01-11T03:34:39.656Z,11
2023-01-11T03:36:39.771Z,10
2023-01-11T03:38:39.865Z,11
2023-01-11T03:40:39.974Z,11
2023-01-11T03:42:40.062Z,11
2023-01-11T03:44:40.216Z,10
2023-01-11T03:46:40.330Z,10
2023-01-11T03:48:40.366Z,9
2023-01-11T03:50:40.446Z,10
2023-01-11T03:52:40.567Z,9
2023-01-11T03:54:40.651Z,9
2023-01-11T03:56:40.770Z,9
2023-01-11T03:58:40.856Z,9
2023-01-11T04:00:41.085Z,10
2023-01-11T04:02:41.092Z,9
2023-01-11T04:04:41.177Z,9
2023-01-11T04:06:41.330Z,10
2023-01-11T04:08:41.411Z,10
2023-01-11T04:10:41.488Z,11
2023-01-11T04:12:41.612Z,10
2023-01-11T04:14:41.681Z,10
2023-01-11T04:16:41.843Z,11
2023-01-11T04:18:41.912Z,10
2023-01-11T04:20:42.063Z,10
2023-01-11T04:22:42.151Z,14
2023-01-11T04:24:42.289Z,13
2023-01-11T04:26:42.338Z,12
2023-01-11T04:28:42.522Z,12
2023-01-11T04:30:42.513Z,12
2023-01-11T04:32:42.651Z,13
2023-01-11T04:34:42.733Z,13
2023-01-11T04:36:42.844Z,12
2023-01-11T04:38:43.036Z,11
2023-01-11T04:40:43.009Z,11
2023-01-11T04:42:43.101Z,12
2023-01-11T04:44:43.222Z,11
2023-01-11T04:46:43.336Z,12
2023-01-11T04:48:43.423Z,12
2023-01-11T04:50:43.648Z,13
2023-01-11T04:52:43.647Z,12
2023-01-11T04:54:43.831Z,11
2023-01-11T04:56:43.846Z,12
2023-01-11T04:58:43.919Z,12
2023-01-11T05:00:44.193Z,12
2023-01-11T05:02:44.136Z,12
2023-01-11T05:04:44.405Z,11
2023-01-11T05:06:44.405Z,11
2023-01-11T05:08:44.467Z,10
2023-01-11T05:10:44.555Z,16
2023-01-11T05:12:44.644Z,9
2023-01-11T05:14:44.725Z,10
2023-01-11T05:16:44.880Z,10
2023-01-11T05:18:44.886Z,10
2023-01-11T05:20:45.045Z,12
2023-01-11T05:22:45.111Z,16
2023-01-11T05:24:45.204Z,16
2023-01-11T05:26:45.302Z,23
2023-01-11T05:28:45.419Z,20
2023-01-11T05:30:45.524Z,20
2023-01-11T05:32:45.593Z,21
2023-01-11T05:34:45.701Z,20
2023-01-11T05:36:45.785Z,21
2023-01-11T05:38:46.025Z,20
2023-01-11T05:40:46.080Z,20
2023-01-11T05:42:46.060Z,20
2023-01-11T05:44:46.134Z,20
2023-01-11T05:46:46.274Z,19
2023-01-11T05:48:46.353Z,21
2023-01-11T05:50:46.456Z,20
2023-01-11T05:52:46.566Z,20
2023-01-11T05:54:46.662Z,20
2023-01-11T05:56:46.793Z,22
2023-01-11T06:00:47.033Z,21
2023-01-11T06:02:47.234Z,21
2023-01-11T06:04:47.210Z,21
2023-01-11T06:06:47.335Z,22
2023-01-11T06:08:47.405Z,23
2023-01-11T06:10:47.504Z,25
2023-01-11T06:12:47.588Z,26
2023-01-11T06:14:47.710Z,26
2023-01-11T06:16:47.849Z,25
2023-01-11T06:18:47.898Z,25
2023-01-11T06:20:48.050Z,25
2023-01-11T06:22:48.092Z,26
2023-01-11T06:24:48.233Z,27
2023-01-11T06:26:48.317Z,26
2023-01-11T06:28:48.411Z,25
2023-01-11T06:30:48.571Z,26
2023-01-11T06:32:48.613Z,26
2023-01-11T06:34:48.708Z,26
2023-01-11T06:36:48.788Z,25
2023-01-11T06:38:48.898Z,27
2023-01-11T06:40:49.023Z,26
2023-01-11T06:42:49.084Z,25
2023-01-11T06:44:49.167Z,25
2023-01-11T06:46:49.283Z,29
2023-01-11T06:48:49.379Z,28
2023-01-11T06:50:49.495Z,32
2023-01-11T06:52:49.569Z,35
2023-01-11T06:54:49.646Z,37
2023-01-11T06:56:49.870Z,41
2023-01-11T06:58:49.849Z,33
2023-01-11T07:00:50.018Z,31
2023-01-11T07:02:50.052Z,27
2023-01-11T07:04:50.238Z,25
2023-01-11T07:06:50.252Z,23
2023-01-11T07:08:50.375Z,25
2023-01-11T07:10:50.474Z,24
2023-01-11T07:12:50.553Z,25
2023-01-11T07:14:50.675Z,27
2023-01-11T07:16:50.739Z,26
2023-01-11T07:18:50.856Z,24
2023-01-11T07:20:51.019Z,24
2023-01-11T07:22:51.035Z,24
2023-01-11T07:24:51.179Z,23
2023-01-11T07:26:51.270Z,25
2023-01-11T07:28:51.360Z,26
2023-01-11T07:30:58.810Z,25
2023-01-11T07:32:51.527Z,26
2023-01-11T07:34:51.742Z,27
2023-01-11T07:36:51.914Z,30
2023-01-11T07:38:51.804Z,30
2023-01-11T07:40:51.980Z,32
2023-01-11T07:42:52.032Z,31
2023-01-11T07:44:52.115Z,30
2023-01-11T07:46:52.339Z,31
2023-01-11T07:48:52.278Z,31
2023-01-11T07:50:52.375Z,31
2023-01-11T07:52:52.469Z,33
2023-01-11T07:54:52.551Z,35
2023-01-11T07:56:52.641Z,47
2023-01-11T07:58:52.730Z,37
2023-01-11T08:00:52.858Z,36
2023-01-11T08:02:53.000Z,36
2023-01-11T08:04:53.016Z,36
2023-01-11T08:06:53.141Z,35
2023-01-11T08:08:53.225Z,34
2023-01-11T08:12:53.392Z,34
2023-01-11T08:14:53.478Z,33
2023-01-11T08:16:53.530Z,32
2023-01-11T08:18:53.632Z,33
2023-01-11T08:20:53.792Z,35
2023-01-11T08:22:53.834Z,37
2023-01-11T08:24:53.918Z,40
2023-01-11T08:26:54.031Z,44
2023-01-11T08:30:54.257Z,40
2023-01-11T08:32:54.253Z,39
2023-01-11T08:34:54.417Z,37
2023-01-11T08:36:54.481Z,36
2023-01-11T08:38:54.559Z,36
2023-01-11T08:40:54.675Z,35
2023-01-11T08:42:54.719Z,33
2023-01-11T08:44:54.818Z,34
2023-01-11T08:46:54.907Z,32
2023-01-11T08:48:55.017Z,35
2023-01-11T08:50:55.118Z,35
2023-01-11T08:52:55.185Z,35
2023-01-11T08:54:55.266Z,34
2023-01-11T08:56:55.429Z,38
2023-01-11T08:58:55.476Z,40
2023-01-11T09:00:55.594Z,38
2023-01-11T09:02:55.649Z,35
2023-01-11T09:04:55.691Z,33
2023-01-11T09:06:55.800Z,27
2023-01-11T09:08:55.871Z,27
2023-01-11T09:10:55.993Z,25
2023-01-11T09:12:56.079Z,24
2023-01-11T09:14:56.143Z,26
2023-01-11T09:16:56.215Z,28
2023-01-11T09:18:56.326Z,29
2023-01-11T09:20:56.468Z,35
2023-01-11T09:22:56.496Z,34
2023-01-11T09:24:56.595Z,33
2023-01-11T09:26:56.712Z,33
2023-01-11T09:28:56.761Z,32
2023-01-11T09:32:56.934Z,32
2023-01-11T09:34:57.091Z,34
2023-01-11T09:36:57.152Z,37
2023-01-11T09:38:57.213Z,41
2023-01-11T09:40:57.376Z,37
2023-01-11T09:42:57.500Z,40
2023-01-11T09:44:57.468Z,37
2023-01-11T09:46:57.696Z,44
2023-01-11T09:48:57.653Z,42
2023-01-11T09:50:57.827Z,42
2023-01-11T09:52:57.816Z,44
2023-01-11T09:54:57.907Z,83
2023-01-11T09:56:57.970Z,51
2023-01-11T09:58:58.075Z,34
2023-01-11T10:01:01.048Z,33
2023-01-11T10:02:58.271Z,72
2023-01-11T10:04:58.396Z,53
2023-01-11T10:06:58.407Z,38
2023-01-11T10:18:26.401Z,32
2023-01-11T10:18:33.477Z,35
2023-01-11T10:19:25.130Z,31
2023-01-11T10:21:28.966Z,29
2023-01-11T10:23:29.082Z,30
2023-01-11T10:25:29.173Z,30
2023-01-11T10:27:29.321Z,28
2023-01-11T10:29:29.395Z,27
2023-01-11T10:31:29.658Z,30
2023-01-11T10:33:29.631Z,33
2023-01-11T10:35:29.753Z,35
2023-01-11T10:37:29.866Z,30
2023-01-11T10:39:29.954Z,29
2023-01-11T10:41:30.079Z,19
2023-01-11T10:43:30.252Z,18
2023-01-11T10:45:30.387Z,18
2023-01-11T10:47:30.403Z,9
2023-01-11T10:49:30.788Z,9
2023-01-11T10:51:30.617Z,11
2023-01-11T10:53:30.731Z,17
2023-01-11T10:55:30.840Z,64
2023-01-11T10:57:30.952Z,25
2023-01-11T10:59:31.062Z,34
2023-01-11T11:01:31.189Z,25
2023-01-11T11:03:31.313Z,28
2023-01-11T11:05:31.365Z,20
2023-01-11T11:07:31.492Z,17
2023-01-11T11:09:31.587Z,40
2023-01-11T11:11:31.721Z,24
2023-01-11T11:13:31.833Z,21
2023-01-11T11:15:31.979Z,19
2023-01-11T11:17:32.074Z,21
2023-01-11T11:19:32.185Z,17
2023-01-11T11:21:32.274Z,14
2023-01-11T11:23:32.445Z,11
2023-01-11T11:25:32.503Z,9
2023-01-11T11:27:32.642Z,10
2023-01-11T11:29:32.720Z,15
2023-01-11T11:31:32.888Z,18
2023-01-11T11:33:32.951Z,18
2023-01-11T11:35:33.057Z,13
2023-01-11T11:37:33.177Z,13
2023-01-11T11:39:33.301Z,14
2023-01-11T11:41:33.409Z,11
2023-01-11T11:43:33.507Z,10
2023-01-11T11:45:33.688Z,15
2023-01-11T11:47:33.753Z,23
2023-01-11T11:49:33.868Z,21
2023-01-11T11:51:33.982Z,19
2023-01-11T11:53:34.088Z,18
2023-01-11T11:55:34.185Z,16
2023-01-11T11:57:34.319Z,13
2023-01-11T11:59:34.362Z,14
2023-01-11T12:01:34.480Z,14
2023-01-11T12:03:34.630Z,14
2023-01-11T12:05:34.720Z,14
2023-01-11T12:07:40.392Z,11
2023-01-11T12:09:35.031Z,16
2023-01-11T12:11:35.080Z,16
2023-01-11T12:13:35.151Z,19
2023-01-11T12:15:35.227Z,16
2023-01-11T12:17:35.376Z,13
2023-01-11T12:19:35.496Z,11
2023-01-11T12:21:35.548Z,15
2023-01-11T12:23:35.665Z,16
2023-01-11T12:25:35.776Z,16
2023-01-11T12:27:35.871Z,22
2023-01-11T12:29:35.968Z,20
2023-01-11T12:31:36.088Z,24
2023-01-11T12:33:36.168Z,23
2023-01-11T12:35:36.276Z,19
2023-01-11T12:37:36.372Z,20
2023-01-11T12:39:36.497Z,21
2023-01-11T12:41:36.617Z,19
2023-01-11T12:43:36.725Z,18
2023-01-11T12:45:36.812Z,15
2023-01-11T12:47:40.000Z,20
2023-01-11T12:49:37.001Z,16
2023-01-11T12:51:37.099Z,15
2023-01-11T12:53:37.197Z,18
2023-01-11T12:55:37.321Z,19
2023-01-11T12:57:37.392Z,20
2023-01-11T12:59:37.519Z,15
2023-01-11T13:01:37.717Z,17
2023-01-11T13:03:37.729Z,19
2023-01-11T13:05:37.801Z,15
2023-01-11T13:07:37.910Z,12
2023-01-11T13:09:38.002Z,11
2023-01-11T13:11:38.199Z,15
2023-01-11T13:13:38.205Z,16
2023-01-11T13:15:38.291Z,21
2023-01-11T13:17:38.402Z,17
2023-01-11T13:19:38.492Z,28
2023-01-11T13:21:38.616Z,27
2023-01-11T13:25:38.845Z,24
2023-01-11T13:27:38.990Z,18
2023-01-11T13:29:39.033Z,15
2023-01-11T13:31:39.122Z,14
2023-01-11T13:33:39.242Z,15
2023-01-11T13:35:39.318Z,20
2023-01-11T13:37:39.425Z,20
2023-01-11T13:39:39.529Z,24
2023-01-11T13:41:39.622Z,19
2023-01-11T13:43:39.765Z,16
2023-01-11T13:45:39.840Z,16
2023-01-11T13:47:39.909Z,24
2023-01-11T13:49:40.006Z,20
2023-01-11T13:51:40.121Z,24
2023-01-11T13:53:40.197Z,30
2023-01-11T13:55:40.318Z,18
2023-01-11T13:57:40.414Z,17
2023-01-11T13:59:40.524Z,14
2023-01-11T14:01:40.726Z,13
2023-01-11T14:03:40.940Z,15
2023-01-11T14:05:40.843Z,24
2023-01-11T14:07:40.919Z,18
2023-01-11T14:09:41.043Z,14
2023-01-11T14:11:41.130Z,20
2023-01-11T14:13:41.273Z,17
2023-01-11T14:15:41.424Z,16
2023-01-11T14:17:41.418Z,15
2023-01-11T14:19:41.518Z,19
2023-01-11T14:21:41.620Z,21
2023-01-11T14:23:41.754Z,25
2023-01-11T14:25:41.798Z,21
2023-01-11T14:27:41.886Z,22
2023-01-11T14:29:41.973Z,21
2023-01-11T14:31:42.071Z,19
2023-01-11T14:33:42.171Z,23
2023-01-11T14:35:42.267Z,29
2023-01-11T14:37:42.355Z,28
2023-01-11T14:39:42.419Z,22
2023-01-11T14:41:42.521Z,21
2023-01-11T14:43:42.693Z,29
2023-01-11T14:45:42.714Z,36
2023-01-11T14:47:42.787Z,35
2023-01-11T14:49:42.939Z,33
2023-01-11T14:51:42.986Z,28
2023-01-11T14:53:43.188Z,23
2023-01-11T14:55:43.189Z,15
2023-01-11T14:57:43.304Z,27
2023-01-11T14:59:43.425Z,32
2023-01-11T15:01:43.568Z,25
2023-01-11T15:03:43.664Z,23
2023-01-11T15:05:43.704Z,22
2023-01-11T15:07:43.804Z,24
2023-01-11T15:09:43.904Z,32
2023-01-11T15:11:43.976Z,32
2023-01-11T15:13:44.101Z,30
2023-01-11T15:15:44.257Z,25
2023-01-11T15:17:44.304Z,29
2023-01-11T15:19:44.395Z,31
2023-01-11T15:21:44.520Z,42
2023-01-11T15:23:44.659Z,36
2023-01-11T15:25:44.697Z,37
2023-01-11T15:27:44.778Z,38
2023-01-11T15:29:44.888Z,51
2023-01-11T15:31:45.141Z,54
2023-01-11T15:33:45.176Z,74
2023-01-11T15:35:45.247Z,45
2023-01-11T15:37:45.377Z,53
2023-01-11T15:39:45.343Z,73
2023-01-11T15:41:46.673Z,38
2023-01-11T15:43:45.558Z,42
2023-01-11T15:45:45.624Z,33
2023-01-11T15:47:47.848Z,45
2023-01-11T15:49:45.908Z,52
2023-01-11T15:51:45.969Z,43
2023-01-11T15:53:47.889Z,22
2023-01-11T15:55:46.080Z,20
2023-01-11T15:57:46.160Z,21
2023-01-11T15:59:46.215Z,25
2023-01-11T16:01:46.268Z,28
2023-01-11T16:03:49.519Z,46
2023-01-11T16:05:46.453Z,50
2023-01-11T16:07:46.541Z,67
2023-01-11T16:09:46.643Z,59
2023-01-11T16:11:46.711Z,42
2023-01-11T16:13:46.807Z,51
2023-01-11T16:15:49.360Z,46
2023-01-11T16:17:46.986Z,40
2023-01-11T16:19:47.060Z,42
2023-01-11T16:21:49.257Z,40
2023-01-11T16:23:47.244Z,33
2023-01-11T16:25:47.329Z,35
2023-01-11T16:27:49.036Z,32
2023-01-11T16:29:47.549Z,31
2023-01-11T16:31:47.689Z,26
2023-01-11T16:33:49.727Z,29
2023-01-11T16:35:47.786Z,28
2023-01-11T16:37:47.887Z,29
2023-01-11T16:39:49.221Z,26
2023-01-11T16:41:48.077Z,24
2023-01-11T16:43:48.160Z,26
2023-01-11T16:45:48.407Z,21
2023-01-11T16:47:48.371Z,23
2023-01-11T16:49:48.420Z,27
2023-01-11T16:51:49.437Z,36
2023-01-11T16:53:48.641Z,34
2023-01-11T16:55:48.679Z,28
2023-01-11T16:57:48.780Z,23
2023-01-11T16:59:48.867Z,26
2023-01-11T17:01:48.980Z,27
2023-01-11T17:03:49.089Z,28
2023-01-11T17:05:49.109Z,26
2023-01-11T17:07:49.212Z,22
2023-01-11T17:09:49.308Z,21
2023-01-11T17:11:49.520Z,29
2023-01-11T17:13:49.715Z,24
2023-01-11T17:15:49.725Z,21
2023-01-11T17:17:49.663Z,19
2023-01-11T17:19:49.750Z,24
2023-01-11T17:21:49.794Z,22
2023-01-11T17:23:49.928Z,22
2023-01-11T17:25:49.987Z,22
2023-01-11T17:27:50.100Z,21
2023-01-11T17:29:50.190Z,25
2023-01-11T17:31:50.318Z,27
2023-01-11T17:33:50.390Z,32
2023-01-11T17:35:50.426Z,33
2023-01-11T17:37:50.530Z,27
2023-01-11T17:39:50.615Z,22
2023-01-11T17:41:50.699Z,25
2023-01-11T17:43:50.762Z,25
2023-01-11T17:45:50.901Z,30
2023-01-11T17:47:50.954Z,29
2023-01-11T17:49:51.029Z,32
2023-01-11T17:51:51.153Z,29
2023-01-11T17:53:51.404Z,32
2023-01-11T17:55:51.328Z,31
2023-01-11T17:57:51.386Z,31
2023-01-11T17:59:51.485Z,25
2023-01-11T18:01:51.563Z,37
2023-01-11T18:03:51.689Z,43
2023-01-11T18:05:51.714Z,36
2023-01-11T18:07:51.839Z,32
2023-01-11T18:09:51.903Z,28
2023-01-11T18:11:51.976Z,38
2023-01-11T18:13:52.059Z,46
2023-01-11T18:15:52.150Z,64
2023-01-11T18:17:52.257Z,56
2023-01-11T18:19:52.331Z,32
2023-01-11T18:21:52.405Z,36
2023-01-11T18:23:52.528Z,53
2023-01-11T18:25:52.583Z,43
2023-01-11T18:27:52.655Z,36
2023-01-11T18:29:52.697Z,61
2023-01-11T18:31:52.783Z,69
2023-01-11T18:33:52.920Z,62
2023-01-11T18:35:52.998Z,59
2023-01-11T18:37:53.090Z,65
2023-01-11T18:39:53.279Z,55
2023-01-11T18:41:53.244Z,52
2023-01-11T18:43:53.449Z,51
2023-01-11T18:45:53.500Z,49
2023-01-11T18:47:53.496Z,46
2023-01-11T18:49:53.729Z,34
2023-01-11T18:51:53.815Z,32
2023-01-11T18:53:53.784Z,24
2023-01-11T18:55:53.875Z,29
2023-01-11T18:57:53.970Z,28
2023-01-11T18:59:54.071Z,31
2023-01-11T19:02:01.456Z,28
2023-01-11T19:03:54.229Z,24
2023-01-11T19:05:54.306Z,20
2023-01-11T19:07:54.368Z,22
2023-01-11T19:09:54.467Z,36
2023-01-11T19:14:24.737Z,42
2023-01-11T19:16:24.851Z,37
2023-01-11T19:18:24.977Z,38
2023-01-11T19:20:25.218Z,37
2023-01-11T19:22:26.664Z,36
2023-01-11T19:24:25.311Z,31
2023-01-11T19:26:25.450Z,32
2023-01-11T19:28:25.562Z,30
2023-01-11T19:30:25.697Z,32
2023-01-11T19:32:25.865Z,32
2023-01-11T19:34:25.882Z,32
2023-01-11T19:36:25.988Z,28
2023-01-11T19:38:26.153Z,23
2023-01-11T19:40:26.264Z,22
2023-01-11T19:42:26.391Z,21
2023-01-11T19:44:26.490Z,22
2023-01-11T19:46:31.970Z,27
2023-01-11T19:48:26.717Z,30
2023-01-11T19:50:26.835Z,21
2023-01-11T19:52:26.930Z,38
2023-01-11T19:54:27.077Z,41
2023-01-11T19:56:27.192Z,23
2023-01-11T19:58:27.295Z,20
2023-01-11T20:00:27.402Z,32
2023-01-11T20:02:27.647Z,28
2023-01-11T20:04:27.644Z,30
2023-01-11T20:06:27.734Z,37
2023-01-11T20:08:27.833Z,33
2023-01-11T20:10:27.942Z,33
2023-01-11T20:12:28.137Z,37
2023-01-11T20:14:28.161Z,30
2023-01-11T20:16:28.294Z,27
2023-01-11T20:18:28.404Z,22
2023-01-11T20:20:28.524Z,26
2023-01-11T20:22:28.654Z,33
2023-01-11T20:24:28.771Z,36
2023-01-11T20:26:28.857Z,36
2023-01-11T20:28:28.997Z,34
2023-01-11T20:32:41.124Z,37
2023-01-11T20:34:29.306Z,43
2023-01-11T20:36:29.436Z,34
2023-01-11T20:38:29.562Z,31
2023-01-11T20:40:29.684Z,27
2023-01-11T20:42:29.784Z,30
2023-01-11T20:44:29.868Z,35
2023-01-11T20:46:30.022Z,31
2023-01-11T20:48:30.116Z,26
2023-01-11T20:50:30.228Z,26
2023-01-11T20:52:30.348Z,27
2023-01-11T20:54:30.444Z,28
2023-01-11T20:56:30.565Z,28
2023-01-11T20:58:30.711Z,27
2023-01-11T21:00:30.925Z,31
2023-01-11T21:02:31.035Z,36
2023-01-11T21:04:31.019Z,34
2023-01-11T21:06:31.143Z,34
2023-01-11T21:08:31.251Z,32
2023-01-11T21:10:31.345Z,26
2023-01-11T21:12:31.593Z,27
2023-01-11T21:14:31.667Z,24
2023-01-11T21:16:31.738Z,24
2023-01-11T21:18:31.768Z,24
2023-01-11T21:20:31.895Z,24
2023-01-11T21:22:32.048Z,27
2023-01-11T21:24:32.105Z,44
2023-01-11T21:26:32.215Z,38
2023-01-11T21:28:32.352Z,41
2023-01-11T21:30:32.433Z,32
2023-01-11T21:32:32.575Z,29
2023-01-11T21:34:32.658Z,27
2023-01-11T21:36:32.754Z,31
2023-01-11T21:38:32.895Z,31
2023-01-11T21:40:32.984Z,31
2023-01-11T21:42:33.133Z,33
2023-01-11T21:44:33.226Z,36
2023-01-11T21:46:33.373Z,37
2023-01-11T21:48:33.400Z,31
2023-01-11T21:50:33.567Z,36
2023-01-11T21:52:33.632Z,32
2023-01-11T21:54:33.746Z,32
2023-01-11T21:56:33.845Z,39
2023-01-11T21:58:33.959Z,24
2023-01-11T22:00:34.262Z,22
2023-01-11T22:02:34.152Z,29
2023-01-11T22:04:34.266Z,26
2023-01-11T22:06:34.375Z,23
2023-01-11T22:08:34.472Z,20
2023-01-11T22:10:34.618Z,30
2023-01-11T22:12:34.709Z,25
2023-01-11T22:14:34.844Z,22
2023-01-11T22:16:34.993Z,21
2023-01-11T22:18:35.056Z,21
2023-01-11T22:20:35.140Z,24
2023-01-11T22:22:35.307Z,23
2023-01-11T22:24:35.357Z,23
2023-01-11T22:26:35.437Z,19
2023-01-11T22:28:35.548Z,18
2023-01-11T22:30:35.662Z,19
2023-01-11T22:32:35.745Z,16
2023-01-11T22:34:35.909Z,17
2023-01-11T22:36:35.980Z,19
2023-01-11T22:38:36.077Z,18
2023-01-11T22:40:36.177Z,21
2023-01-11T22:42:36.288Z,19
2023-01-11T22:44:36.416Z,19
2023-01-11T22:46:36.532Z,19
2023-01-11T22:48:36.624Z,17
2023-01-11T22:50:36.739Z,18
2023-01-11T22:52:36.853Z,18
2023-01-11T22:54:36.928Z,17
2023-01-11T22:56:37.156Z,17
2023-01-11T22:58:37.157Z,17
2023-01-11T23:00:37.285Z,14
2023-01-11T23:02:37.418Z,16
2023-01-11T23:04:37.604Z,16
2023-01-11T23:06:37.602Z,14
2023-01-11T23:08:37.667Z,13
2023-01-11T23:10:37.804Z,14
2023-01-11T23:12:37.909Z,14
2023-01-11T23:14:38.029Z,14
2023-01-11T23:16:38.136Z,13
2023-01-11T23:18:38.237Z,13
2023-01-11T23:20:38.414Z,13
2023-01-11T23:22:38.418Z,18
2023-01-11T23:24:38.598Z,22
2023-01-11T23:26:38.743Z,20
2023-01-11T23:28:38.755Z,18
2023-01-11T23:30:38.887Z,19
2023-01-11T23:32:38.983Z,19
2023-01-11T23:34:39.067Z,18
2023-01-11T23:36:39.192Z,17
2023-01-11T23:38:39.277Z,16
2023-01-11T23:40:39.415Z,17
2023-01-11T23:42:39.479Z,17
2023-01-11T23:44:39.631Z,18
2023-01-11T23:46:39.705Z,18
2023-01-11T23:48:39.768Z,18
2023-01-11T23:50:39.893Z,17
2023-01-11T23:52:39.988Z,21
2023-01-11T23:54:40.085Z,24
2023-01-11T23:56:40.194Z,22
2023-01-11T23:58:40.276Z,19
